sensor_id;sensor_type;location;lat;lon;timestamp;pressure;altitude;pressure_sealevel;temperature;humidity
6395;BME280;3230;42.588;23.358;2022-08-07T00:02:03;90970.63;;;20.75;79.99
6395;BME280;3230;42.588;23.358;2022-08-07T00:04:28;90971.50;;;20.67;80.75
6395;BME280;3230;42.588;23.358;2022-08-07T00:06:54;90971.28;;;20.72;81.05
6395;BME280;3230;42.588;23.358;2022-08-07T00:09:20;90970.41;;;20.68;82.74
6395;BME280;3230;42.588;23.358;2022-08-07T00:11:46;90970.53;;;20.72;82.72
6395;BME280;3230;42.588;23.358;2022-08-07T00:14:11;90970.53;;;20.72;83.13
6395;BME280;3230;42.588;23.358;2022-08-07T00:16:37;90975.03;;;20.71;83.00
6395;BME280;3230;42.588;23.358;2022-08-07T00:19:02;90968.16;;;20.70;83.37
6395;BME280;3230;42.588;23.358;2022-08-07T00:21:28;90977.41;;;20.73;83.55
6395;BME280;3230;42.588;23.358;2022-08-07T00:23:53;90980.34;;;20.71;83.29
6395;BME280;3230;42.588;23.358;2022-08-07T00:26:18;90977.28;;;20.69;83.24
6395;BME280;3230;42.588;23.358;2022-08-07T00:28:44;90975.16;;;20.75;84.22
6395;BME280;3230;42.588;23.358;2022-08-07T00:31:10;90965.19;;;20.72;83.36
6395;BME280;3230;42.588;23.358;2022-08-07T00:33:37;90970.63;;;20.75;82.36
6395;BME280;3230;42.588;23.358;2022-08-07T00:36:03;90967.53;;;20.73;81.76
6395;BME280;3230;42.588;23.358;2022-08-07T00:38:29;90970.63;;;20.75;81.79
6395;BME280;3230;42.588;23.358;2022-08-07T00:40:57;90973.72;;;20.77;81.89
6395;BME280;3230;42.588;23.358;2022-08-07T00:43:22;90972.56;;;20.91;81.52
6395;BME280;3230;42.588;23.358;2022-08-07T00:45:47;90969.56;;;20.92;81.27
6395;BME280;3230;42.588;23.358;2022-08-07T00:48:13;90973.31;;;21.04;80.79
6395;BME280;3230;42.588;23.358;2022-08-07T00:50:39;90976.50;;;21.09;79.81
6395;BME280;3230;42.588;23.358;2022-08-07T00:53:04;90975.06;;;21.12;80.41
6395;BME280;3230;42.588;23.358;2022-08-07T00:55:30;90975.56;;;21.18;80.58
6395;BME280;3230;42.588;23.358;2022-08-07T00:57:56;90978.22;;;21.18;80.62
6395;BME280;3230;42.588;23.358;2022-08-07T01:00:22;90976.69;;;21.17;81.65
6395;BME280;3230;42.588;23.358;2022-08-07T01:02:48;90979.47;;;21.20;82.27
6395;BME280;3230;42.588;23.358;2022-08-07T01:05:14;90973.69;;;21.18;81.91
6395;BME280;3230;42.588;23.358;2022-08-07T01:07:40;90975.25;;;21.19;83.49
6395;BME280;3230;42.588;23.358;2022-08-07T01:10:07;90972.78;;;21.27;82.67
6395;BME280;3230;42.588;23.358;2022-08-07T01:12:34;90979.66;;;21.28;81.30
6395;BME280;3230;42.588;23.358;2022-08-07T01:14:59;90973.81;;;21.38;81.12
6395;BME280;3230;42.588;23.358;2022-08-07T01:17:26;90975.72;;;21.37;80.13
6395;BME280;3230;42.588;23.358;2022-08-07T01:19:53;90968.50;;;21.38;80.58
6395;BME280;3230;42.588;23.358;2022-08-07T01:22:21;90960.06;;;21.36;80.29
6395;BME280;3230;42.588;23.358;2022-08-07T01:24:46;90973.72;;;21.34;80.45
6395;BME280;3230;42.588;23.358;2022-08-07T01:27:12;90969.56;;;21.21;80.10
6395;BME280;3230;42.588;23.358;2022-08-07T01:29:38;90975.81;;;21.13;80.13
6395;BME280;3230;42.588;23.358;2022-08-07T01:32:04;90966.88;;;21.05;80.75
6395;BME280;3230;42.588;23.358;2022-08-07T01:34:31;90968.75;;;21.04;82.14
6395;BME280;3230;42.588;23.358;2022-08-07T01:36:57;90969.09;;;21.03;82.50
6395;BME280;3230;42.588;23.358;2022-08-07T01:39:23;90974.22;;;20.96;83.13
6395;BME280;3230;42.588;23.358;2022-08-07T01:41:49;90974.13;;;20.92;81.85
6395;BME280;3230;42.588;23.358;2022-08-07T01:44:15;90972.75;;;20.98;82.20
6395;BME280;3230;42.588;23.358;2022-08-07T01:46:40;90974.22;;;20.96;81.94
6395;BME280;3230;42.588;23.358;2022-08-07T01:49:06;90981.19;;;21.00;82.20
6395;BME280;3230;42.588;23.358;2022-08-07T01:51:32;90982.31;;;20.99;83.00
6395;BME280;3230;42.588;23.358;2022-08-07T01:54:02;90986.06;;;20.98;83.11
6395;BME280;3230;42.588;23.358;2022-08-07T01:56:34;90981.19;;;21.00;83.07
6395;BME280;3230;42.588;23.358;2022-08-07T01:59:06;90991.00;;;20.96;84.86
6395;BME280;3230;42.588;23.358;2022-08-07T02:01:36;91000.09;;;20.95;82.72
6395;BME280;3230;42.588;23.358;2022-08-07T02:04:09;91015.06;;;20.87;80.82
6395;BME280;3230;42.588;23.358;2022-08-07T02:06:37;91024.81;;;20.96;79.44
6395;BME280;3230;42.588;23.358;2022-08-07T02:09:04;91062.88;;;21.08;79.39
6395;BME280;3230;42.588;23.358;2022-08-07T02:11:34;91075.31;;;20.92;80.32
6395;BME280;3230;42.588;23.358;2022-08-07T02:14:00;91080.44;;;20.85;81.02
6395;BME280;3230;42.588;23.358;2022-08-07T02:16:28;91073.56;;;20.84;81.08
6395;BME280;3230;42.588;23.358;2022-08-07T02:18:55;91079.09;;;20.91;81.39
6395;BME280;3230;42.588;23.358;2022-08-07T02:21:21;91093.53;;;20.90;84.62
6395;BME280;3230;42.588;23.358;2022-08-07T02:23:48;91091.53;;;20.87;87.46
6395;BME280;3230;42.588;23.358;2022-08-07T02:26:14;91098.06;;;20.65;89.89
6395;BME280;3230;42.588;23.358;2022-08-07T02:28:40;91095.19;;;20.33;94.84
6395;BME280;3230;42.588;23.358;2022-08-07T02:31:06;91086.66;;;20.39;97.69
6395;BME280;3230;42.588;23.358;2022-08-07T02:33:33;91071.91;;;20.29;99.29
6395;BME280;3230;42.588;23.358;2022-08-07T02:36:01;91061.13;;;20.38;99.82
6395;BME280;3230;42.588;23.358;2022-08-07T02:38:28;91053.59;;;20.16;100.00
6395;BME280;3230;42.588;23.358;2022-08-07T02:40:57;91052.34;;;20.01;100.00
6395;BME280;3230;42.588;23.358;2022-08-07T02:43:25;91039.72;;;19.97;100.00
6395;BME280;3230;42.588;23.358;2022-08-07T02:45:52;91024.44;;;19.94;100.00
6395;BME280;3230;42.588;23.358;2022-08-07T02:48:19;91031.19;;;19.92;100.00
6395;BME280;3230;42.588;23.358;2022-08-07T02:50:47;91019.44;;;19.93;100.00
6395;BME280;3230;42.588;23.358;2022-08-07T02:53:20;91010.47;;;19.85;100.00
6395;BME280;3230;42.588;23.358;2022-08-07T02:55:47;91006.50;;;19.91;100.00
6395;BME280;3230;42.588;23.358;2022-08-07T02:58:16;91007.88;;;19.76;100.00
6395;BME280;3230;42.588;23.358;2022-08-07T03:00:44;91000.84;;;19.47;100.00
6395;BME280;3230;42.588;23.358;2022-08-07T03:03:11;91002.06;;;19.62;100.00
6395;BME280;3230;42.588;23.358;2022-08-07T03:05:37;90997.03;;;19.81;100.00
6395;BME280;3230;42.588;23.358;2022-08-07T03:08:04;90978.19;;;19.74;100.00
6395;BME280;3230;42.588;23.358;2022-08-07T03:10:32;90987.75;;;19.88;100.00
6395;BME280;3230;42.588;23.358;2022-08-07T03:12:59;90990.41;;;20.00;100.00
6395;BME280;3230;42.588;23.358;2022-08-07T03:15:27;90993.19;;;20.04;100.00
6395;BME280;3230;42.588;23.358;2022-08-07T03:17:53;90989.97;;;20.10;100.00
6395;BME280;3230;42.588;23.358;2022-08-07T03:20:18;90978.91;;;20.08;100.00
6395;BME280;3230;42.588;23.358;2022-08-07T03:22:45;90988.31;;;20.18;100.00
6395;BME280;3230;42.588;23.358;2022-08-07T03:25:11;90983.53;;;20.24;100.00
6395;BME280;3230;42.588;23.358;2022-08-07T03:27:38;90986.00;;;20.29;100.00
6395;BME280;3230;42.588;23.358;2022-08-07T03:30:06;90993.84;;;20.13;100.00
6395;BME280;3230;42.588;23.358;2022-08-07T03:32:35;90997.94;;;20.23;100.00
6395;BME280;3230;42.588;23.358;2022-08-07T03:35:03;90975.91;;;20.22;100.00
6395;BME280;3230;42.588;23.358;2022-08-07T03:37:31;90984.44;;;20.28;100.00
6395;BME280;3230;42.588;23.358;2022-08-07T03:39:59;90981.97;;;20.23;100.00
6395;BME280;3230;42.588;23.358;2022-08-07T03:42:25;90988.06;;;20.36;100.00
6395;BME280;3230;42.588;23.358;2022-08-07T03:44:51;90985.41;;;20.48;100.00
6395;BME280;3230;42.588;23.358;2022-08-07T03:47:17;90991.94;;;20.51;100.00
6395;BME280;3230;42.588;23.358;2022-08-07T03:49:43;90996.25;;;20.55;100.00
6395;BME280;3230;42.588;23.358;2022-08-07T03:52:10;90996.34;;;20.59;100.00
6395;BME280;3230;42.588;23.358;2022-08-07T03:54:36;91000.34;;;20.65;100.00
6395;BME280;3230;42.588;23.358;2022-08-07T03:57:03;91005.25;;;20.63;100.00
6395;BME280;3230;42.588;23.358;2022-08-07T03:59:30;91004.78;;;20.73;100.00
6395;BME280;3230;42.588;23.358;2022-08-07T04:01:57;91007.44;;;20.86;100.00
6395;BME280;3230;42.588;23.358;2022-08-07T04:04:23;91006.28;;;20.99;100.00
6395;BME280;3230;42.588;23.358;2022-08-07T04:06:50;91010.88;;;21.15;100.00
6395;BME280;3230;42.588;23.358;2022-08-07T04:09:16;91017.81;;;21.32;100.00
6395;BME280;3230;42.588;23.358;2022-08-07T04:11:43;91014.44;;;21.47;99.05
6395;BME280;3230;42.588;23.358;2022-08-07T04:14:09;91018.41;;;21.53;100.00
6395;BME280;3230;42.588;23.358;2022-08-07T04:16:35;91016.38;;;21.79;98.75
6395;BME280;3230;42.588;23.358;2022-08-07T04:19:02;91017.00;;;22.20;98.29
6395;BME280;3230;42.588;23.358;2022-08-07T04:21:28;91014.34;;;22.36;97.41
6395;BME280;3230;42.588;23.358;2022-08-07T04:23:54;91020.78;;;22.51;97.16
6395;BME280;3230;42.588;23.358;2022-08-07T04:26:20;91023.19;;;22.56;96.81
6395;BME280;3230;42.588;23.358;2022-08-07T04:28:45;91023.50;;;22.71;96.27
6395;BME280;3230;42.588;23.358;2022-08-07T04:31:11;91033.13;;;22.91;93.45
6395;BME280;3230;42.588;23.358;2022-08-07T04:33:39;91033.25;;;23.34;90.89
6395;BME280;3230;42.588;23.358;2022-08-07T04:36:07;91043.00;;;23.66;89.53
6395;BME280;3230;42.588;23.358;2022-08-07T04:38:34;91033.69;;;23.79;86.80
6395;BME280;3230;42.588;23.358;2022-08-07T04:41:00;91031.31;;;23.93;84.36
6395;BME280;3230;42.588;23.358;2022-08-07T04:43:33;91034.25;;;23.88;88.64
6395;BME280;3230;42.588;23.358;2022-08-07T04:46:06;91039.81;;;24.22;82.85
6395;BME280;3230;42.588;23.358;2022-08-07T04:52:02;91042.59;;;24.76;83.07
6395;BME280;3230;42.588;23.358;2022-08-07T04:55:03;91044.78;;;24.47;82.21
6395;BME280;3230;42.588;23.358;2022-08-07T04:57:31;91044.38;;;24.68;79.09
6395;BME280;3230;42.588;23.358;2022-08-07T05:02:30;91049.88;;;26.42;79.54
6395;BME280;3230;42.588;23.358;2022-08-07T05:05:05;91080.97;;;30.19;62.58
6395;BME280;3230;42.588;23.358;2022-08-07T05:07:43;91070.22;;;32.28;53.26
6395;BME280;3230;42.588;23.358;2022-08-07T05:10:46;91076.06;;;34.69;44.45
6395;BME280;3230;42.588;23.358;2022-08-07T05:13:44;91081.75;;;35.87;39.88
6395;BME280;3230;42.588;23.358;2022-08-07T05:16:13;91083.69;;;36.97;35.48
6395;BME280;3230;42.588;23.358;2022-08-07T05:18:47;91097.13;;;37.04;35.64
6395;BME280;3230;42.588;23.358;2022-08-07T05:21:16;91093.97;;;38.55;29.85
6395;BME280;3230;42.588;23.358;2022-08-07T05:23:54;91090.06;;;38.66;31.02
6395;BME280;3230;42.588;23.358;2022-08-07T05:26:23;91095.16;;;38.54;31.19
6395;BME280;3230;42.588;23.358;2022-08-07T05:28:51;91104.03;;;37.57;32.44
6395;BME280;3230;42.588;23.358;2022-08-07T05:31:19;91104.97;;;38.96;31.15
6395;BME280;3230;42.588;23.358;2022-08-07T05:33:47;91104.72;;;39.72;28.53
6395;BME280;3230;42.588;23.358;2022-08-07T05:36:14;91101.91;;;38.63;29.83
6395;BME280;3230;42.588;23.358;2022-08-07T05:38:41;91096.47;;;38.41;30.40
6395;BME280;3230;42.588;23.358;2022-08-07T05:41:08;91097.72;;;39.21;28.81
6395;BME280;3230;42.588;23.358;2022-08-07T05:43:34;91109.06;;;40.72;27.57
6395;BME280;3230;42.588;23.358;2022-08-07T05:46:01;91104.25;;;39.74;27.43
6395;BME280;3230;42.588;23.358;2022-08-07T05:48:28;91105.31;;;39.76;27.97
6395;BME280;3230;42.588;23.358;2022-08-07T05:50:55;91118.13;;;40.07;27.20
6395;BME280;3230;42.588;23.358;2022-08-07T05:53:22;91120.66;;;39.05;28.87
6395;BME280;3230;42.588;23.358;2022-08-07T05:55:48;91131.72;;;40.91;26.18
6395;BME280;3230;42.588;23.358;2022-08-07T05:58:15;91141.00;;;41.46;24.05
6395;BME280;3230;42.588;23.358;2022-08-07T06:00:43;91130.91;;;39.82;26.76
6395;BME280;3230;42.588;23.358;2022-08-07T06:03:11;91137.47;;;40.04;26.01
6395;BME280;3230;42.588;23.358;2022-08-07T06:05:38;91134.19;;;38.99;28.04
6395;BME280;3230;42.588;23.358;2022-08-07T06:08:05;91141.75;;;40.33;27.83
6395;BME280;3230;42.588;23.358;2022-08-07T06:10:31;91130.16;;;39.82;26.27
6395;BME280;3230;42.588;23.358;2022-08-07T06:12:59;91129.41;;;40.19;26.84
6395;BME280;3230;42.588;23.358;2022-08-07T06:15:25;91140.69;;;39.93;27.02
6395;BME280;3230;42.588;23.358;2022-08-07T06:17:51;91142.13;;;39.57;27.12
6395;BME280;3230;42.588;23.358;2022-08-07T06:20:18;91131.81;;;39.61;26.54
6395;BME280;3230;42.588;23.358;2022-08-07T06:22:45;91136.56;;;40.35;26.67
6395;BME280;3230;42.588;23.358;2022-08-07T06:25:12;91133.34;;;41.07;25.89
6395;BME280;3230;42.588;23.358;2022-08-07T06:27:37;91135.06;;;40.24;26.62
6395;BME280;3230;42.588;23.358;2022-08-07T06:30:03;91131.97;;;40.50;25.79
6395;BME280;3230;42.588;23.358;2022-08-07T06:32:29;91131.47;;;40.70;26.73
6395;BME280;3230;42.588;23.358;2022-08-07T06:34:55;91131.75;;;41.24;24.88
6395;BME280;3230;42.588;23.358;2022-08-07T06:37:20;91130.50;;;40.92;25.50
6395;BME280;3230;42.588;23.358;2022-08-07T06:39:46;91125.38;;;40.75;25.77
6395;BME280;3230;42.588;23.358;2022-08-07T06:42:17;91136.59;;;41.39;25.89
6395;BME280;3230;42.588;23.358;2022-08-07T06:44:46;91129.72;;;41.92;24.54
6395;BME280;3230;42.588;23.358;2022-08-07T06:47:12;91130.88;;;42.40;23.86
6395;BME280;3230;42.588;23.358;2022-08-07T06:49:38;91126.22;;;41.92;23.59
6395;BME280;3230;42.588;23.358;2022-08-07T06:52:05;91126.69;;;40.89;24.51
6395;BME280;3230;42.588;23.358;2022-08-07T06:54:32;91127.41;;;42.15;24.88
6395;BME280;3230;42.588;23.358;2022-08-07T06:56:58;91140.34;;;43.43;23.31
6395;BME280;3230;42.588;23.358;2022-08-07T06:59:26;91133.28;;;42.23;24.21
6395;BME280;3230;42.588;23.358;2022-08-07T07:01:55;91137.41;;;41.79;25.40
6395;BME280;3230;42.588;23.358;2022-08-07T07:04:23;91141.72;;;42.19;24.11
6395;BME280;3230;42.588;23.358;2022-08-07T07:06:50;91141.19;;;41.91;24.55
6395;BME280;3230;42.588;23.358;2022-08-07T07:11:48;91130.69;;;41.80;24.35
6395;BME280;3230;42.588;23.358;2022-08-07T07:14:17;91128.88;;;40.67;27.18
6395;BME280;3230;42.588;23.358;2022-08-07T07:16:46;91128.63;;;41.07;27.55
6395;BME280;3230;42.588;23.358;2022-08-07T07:19:14;91122.38;;;41.07;25.93
6395;BME280;3230;42.588;23.358;2022-08-07T07:21:41;91132.31;;;42.50;25.60
6395;BME280;3230;42.588;23.358;2022-08-07T07:24:08;91134.69;;;42.57;24.39
6395;BME280;3230;42.588;23.358;2022-08-07T07:26:36;91126.69;;;42.29;24.35
6395;BME280;3230;42.588;23.358;2022-08-07T07:29:13;91132.13;;;41.42;25.91
6395;BME280;3230;42.588;23.358;2022-08-07T07:31:43;91130.91;;;41.43;26.24
6395;BME280;3230;42.588;23.358;2022-08-07T07:34:14;91136.09;;;41.98;26.58
6395;BME280;3230;42.588;23.358;2022-08-07T07:36:43;91139.84;;;41.28;26.24
6395;BME280;3230;42.588;23.358;2022-08-07T07:39:09;91141.81;;;41.28;27.16
6395;BME280;3230;42.588;23.358;2022-08-07T07:41:38;91144.34;;;41.50;26.33
6395;BME280;3230;42.588;23.358;2022-08-07T07:44:05;91146.91;;;41.20;27.21
6395;BME280;3230;42.588;23.358;2022-08-07T07:46:34;91145.63;;;42.27;24.72
6395;BME280;3230;42.588;23.358;2022-08-07T07:49:01;91155.94;;;42.42;24.47
6395;BME280;3230;42.588;23.358;2022-08-07T07:51:28;91151.16;;;42.27;24.54
6395;BME280;3230;42.588;23.358;2022-08-07T07:53:56;91146.16;;;40.49;27.63
6395;BME280;3230;42.588;23.358;2022-08-07T07:56:24;91140.69;;;39.74;28.19
6395;BME280;3230;42.588;23.358;2022-08-07T07:58:52;91134.63;;;40.87;26.62
6395;BME280;3230;42.588;23.358;2022-08-07T08:01:19;91139.16;;;39.73;29.49
6395;BME280;3230;42.588;23.358;2022-08-07T08:03:45;91137.19;;;40.39;28.59
6395;BME280;3230;42.588;23.358;2022-08-07T08:06:13;91136.63;;;40.87;28.36
6395;BME280;3230;42.588;23.358;2022-08-07T08:08:40;91132.00;;;40.32;29.39
6395;BME280;3230;42.588;23.358;2022-08-07T08:11:08;91137.69;;;40.80;27.97
6395;BME280;3230;42.588;23.358;2022-08-07T08:13:42;91133.47;;;41.22;27.60
6395;BME280;3230;42.588;23.358;2022-08-07T08:16:11;91134.75;;;41.45;27.64
6395;BME280;3230;42.588;23.358;2022-08-07T08:18:38;91141.56;;;40.64;26.88
6395;BME280;3230;42.588;23.358;2022-08-07T08:21:05;91134.00;;;39.25;28.69
6395;BME280;3230;42.588;23.358;2022-08-07T08:23:50;91134.91;;;40.28;27.11
6395;BME280;3230;42.588;23.358;2022-08-07T08:26:34;91144.78;;;40.35;26.73
6395;BME280;3230;42.588;23.358;2022-08-07T08:29:18;91143.59;;;41.06;27.41
6395;BME280;3230;42.588;23.358;2022-08-07T08:31:44;91140.38;;;40.00;27.59
6395;BME280;3230;42.588;23.358;2022-08-07T08:34:10;91152.72;;;40.42;27.12
6395;BME280;3230;42.588;23.358;2022-08-07T08:36:38;91146.91;;;40.49;26.53
6395;BME280;3230;42.588;23.358;2022-08-07T08:39:06;91156.31;;;37.20;31.40
6395;BME280;3230;42.588;23.358;2022-08-07T08:41:48;91153.00;;;36.74;31.86
6395;BME280;3230;42.588;23.358;2022-08-07T08:44:31;91162.66;;;37.43;30.99
6395;BME280;3230;42.588;23.358;2022-08-07T08:47:27;91163.75;;;36.09;33.49
6395;BME280;3230;42.588;23.358;2022-08-07T08:50:14;91155.47;;;34.24;37.04
6395;BME280;3230;42.588;23.358;2022-08-07T09:00:25;91144.56;;;31.92;42.13
6395;BME280;3230;42.588;23.358;2022-08-07T09:02:57;91145.16;;;31.31;44.30
6395;BME280;3230;42.588;23.358;2022-08-07T09:05:38;91143.47;;;30.31;47.29
6395;BME280;3230;42.588;23.358;2022-08-07T09:11:14;91136.38;;;29.56;52.14
6395;BME280;3230;42.588;23.358;2022-08-07T09:14:13;91130.69;;;30.36;50.95
6395;BME280;3230;42.588;23.358;2022-08-07T09:16:56;91143.00;;;30.51;50.08
6395;BME280;3230;42.588;23.358;2022-08-07T09:19:34;91131.66;;;29.82;52.88
6395;BME280;3230;42.588;23.358;2022-08-07T09:22:39;91132.09;;;29.73;51.45
6395;BME280;3230;42.588;23.358;2022-08-07T09:25:24;91132.50;;;28.67;54.80
6395;BME280;3230;42.588;23.358;2022-08-07T09:27:56;91125.22;;;28.96;54.91
6395;BME280;3230;42.588;23.358;2022-08-07T09:30:28;91126.38;;;28.95;54.59
6395;BME280;3230;42.588;23.358;2022-08-07T09:33:07;91121.75;;;28.99;53.96
6395;BME280;3230;42.588;23.358;2022-08-07T09:35:57;91127.94;;;28.78;54.63
6395;BME280;3230;42.588;23.358;2022-08-07T09:38:46;91127.13;;;28.88;53.25
6395;BME280;3230;42.588;23.358;2022-08-07T09:41:39;91125.19;;;28.64;54.07
6395;BME280;3230;42.588;23.358;2022-08-07T09:50:07;91118.25;;;29.42;51.93
6395;BME280;3230;42.588;23.358;2022-08-07T09:52:47;91127.91;;;29.47;51.05
6395;BME280;3230;42.588;23.358;2022-08-07T10:08:54;91107.09;;;29.47;50.34
6395;BME280;3230;42.588;23.358;2022-08-07T10:11:51;91100.16;;;29.28;52.03
6395;BME280;3230;42.588;23.358;2022-08-07T10:25:37;91117.47;;;28.48;53.00
6395;BME280;3230;42.588;23.358;2022-08-07T10:39:24;91107.50;;;28.92;53.06
6395;BME280;3230;42.588;23.358;2022-08-07T10:48:12;91113.97;;;29.56;48.94
6395;BME280;3230;42.588;23.358;2022-08-07T10:53:09;91101.72;;;29.15;51.82
6395;BME280;3230;42.588;23.358;2022-08-07T11:01:50;91107.91;;;28.79;50.70
6395;BME280;3230;42.588;23.358;2022-08-07T11:07:18;91110.53;;;28.54;50.11
6395;BME280;3230;42.588;23.358;2022-08-07T11:09:51;91107.06;;;28.50;49.08
6395;BME280;3230;42.588;23.358;2022-08-07T11:12:25;91110.81;;;28.09;54.82
6395;BME280;3230;42.588;23.358;2022-08-07T11:15:03;91111.50;;;27.84;62.19
6395;BME280;3230;42.588;23.358;2022-08-07T11:17:40;91120.84;;;27.38;61.92
6395;BME280;3230;42.588;23.358;2022-08-07T11:20:21;91117.63;;;27.18;71.45
6395;BME280;3230;42.588;23.358;2022-08-07T11:25:41;91100.75;;;26.69;74.22
6395;BME280;3230;42.588;23.358;2022-08-07T11:28:13;91109.94;;;26.68;74.08
6395;BME280;3230;42.588;23.358;2022-08-07T11:38:25;91110.44;;;27.29;70.66
6395;BME280;3230;42.588;23.358;2022-08-07T11:41:02;91108.06;;;27.17;71.13
6395;BME280;3230;42.588;23.358;2022-08-07T11:43:31;91108.94;;;27.36;66.72
6395;BME280;3230;42.588;23.358;2022-08-07T11:46:21;91094.97;;;27.16;67.51
6395;BME280;3230;42.588;23.358;2022-08-07T11:57:41;91101.66;;;28.53;61.59
6395;BME280;3230;42.588;23.358;2022-08-07T12:05:36;91098.22;;;28.49;60.62
6395;BME280;3230;42.588;23.358;2022-08-07T12:08:23;91114.72;;;28.26;58.29
6395;BME280;3230;42.588;23.358;2022-08-07T12:10:58;91113.47;;;27.98;59.41
6395;BME280;3230;42.588;23.358;2022-08-07T12:13:58;91121.09;;;27.82;58.07
6395;BME280;3230;42.588;23.358;2022-08-07T12:16:28;91125.72;;;27.85;58.15
6395;BME280;3230;42.588;23.358;2022-08-07T12:22:12;91120.81;;;27.35;59.63
6395;BME280;3230;42.588;23.358;2022-08-07T12:25:19;91109.50;;;27.07;61.29
6395;BME280;3230;42.588;23.358;2022-08-07T12:28:16;91105.13;;;26.43;63.67
6395;BME280;3230;42.588;23.358;2022-08-07T12:30:49;91104.13;;;26.59;64.67
6395;BME280;3230;42.588;23.358;2022-08-07T12:33:22;91101.38;;;26.52;63.29
6395;BME280;3230;42.588;23.358;2022-08-07T12:35:51;91094.16;;;26.59;63.69
6395;BME280;3230;42.588;23.358;2022-08-07T12:38:19;91088.53;;;26.75;65.33
6395;BME280;3230;42.588;23.358;2022-08-07T12:40:47;91086.78;;;27.01;63.25
6395;BME280;3230;42.588;23.358;2022-08-07T12:43:15;91081.91;;;27.14;62.64
6395;BME280;3230;42.588;23.358;2022-08-07T12:45:55;91084.25;;;27.23;62.96
6395;BME280;3230;42.588;23.358;2022-08-07T12:49:12;91084.06;;;27.57;62.00
6395;BME280;3230;42.588;23.358;2022-08-07T12:51:49;91077.94;;;27.60;63.08
6395;BME280;3230;42.588;23.358;2022-08-07T12:54:28;91077.53;;;27.58;60.45
6395;BME280;3230;42.588;23.358;2022-08-07T12:56:57;91079.59;;;27.93;61.65
6395;BME280;3230;42.588;23.358;2022-08-07T12:59:26;91079.19;;;27.88;60.55
6395;BME280;3230;42.588;23.358;2022-08-07T13:10:24;91071.91;;;27.92;60.35
6395;BME280;3230;42.588;23.358;2022-08-07T13:21:17;91075.41;;;28.07;60.74
6395;BME280;3230;42.588;23.358;2022-08-07T13:24:15;91065.22;;;27.57;60.23
6395;BME280;3230;42.588;23.358;2022-08-07T13:26:48;91068.72;;;27.61;59.18
6395;BME280;3230;42.588;23.358;2022-08-07T13:30:18;91069.97;;;27.96;58.27
6395;BME280;3230;42.588;23.358;2022-08-07T13:33:10;91068.34;;;27.66;57.31
6395;BME280;3230;42.588;23.358;2022-08-07T13:36:11;91068.38;;;27.73;57.07
6395;BME280;3230;42.588;23.358;2022-08-07T13:38:48;91071.47;;;27.83;55.47
6395;BME280;3230;42.588;23.358;2022-08-07T13:41:38;91061.41;;;27.65;57.27
6395;BME280;3230;42.588;23.358;2022-08-07T13:44:06;91069.94;;;27.78;57.63
6395;BME280;3230;42.588;23.358;2022-08-07T13:46:36;91073.00;;;27.84;57.65
6395;BME280;3230;42.588;23.358;2022-08-07T13:49:04;91067.28;;;28.00;55.96
6395;BME280;3230;42.588;23.358;2022-08-07T13:51:32;91056.13;;;27.90;56.44
6395;BME280;3230;42.588;23.358;2022-08-07T13:54:05;91061.53;;;27.94;57.51
6395;BME280;3230;42.588;23.358;2022-08-07T13:56:34;91056.53;;;28.03;55.21
6395;BME280;3230;42.588;23.358;2022-08-07T13:59:01;91053.81;;;27.92;56.26
6395;BME280;3230;42.588;23.358;2022-08-07T14:01:29;91063.50;;;28.12;55.69
6395;BME280;3230;42.588;23.358;2022-08-07T14:03:57;91065.28;;;27.71;55.45
6395;BME280;3230;42.588;23.358;2022-08-07T14:06:31;91061.66;;;27.38;57.49
6395;BME280;3230;42.588;23.358;2022-08-07T14:08:57;91066.25;;;27.31;58.73
6395;BME280;3230;42.588;23.358;2022-08-07T14:11:27;91083.16;;;26.75;61.86
6395;BME280;3230;42.588;23.358;2022-08-07T14:14:03;91085.66;;;26.12;64.56
6395;BME280;3230;42.588;23.358;2022-08-07T14:16:36;91092.97;;;25.81;68.10
6395;BME280;3230;42.588;23.358;2022-08-07T14:19:03;91093.81;;;25.55;69.75
6395;BME280;3230;42.588;23.358;2022-08-07T14:21:42;91091.75;;;25.75;70.16
6395;BME280;3230;42.588;23.358;2022-08-07T14:24:14;91093.19;;;25.99;69.88
6395;BME280;3230;42.588;23.358;2022-08-07T14:26:48;91093.69;;;26.09;69.93
6395;BME280;3230;42.588;23.358;2022-08-07T14:29:18;91094.53;;;26.16;67.93
6395;BME280;3230;42.588;23.358;2022-08-07T14:31:46;91102.41;;;26.40;67.32
6395;BME280;3230;42.588;23.358;2022-08-07T14:34:14;91108.63;;;26.47;65.57
6395;BME280;3230;42.588;23.358;2022-08-07T14:36:41;91107.25;;;26.68;64.42
6395;BME280;3230;42.588;23.358;2022-08-07T14:39:09;91111.34;;;26.51;62.12
6395;BME280;3230;42.588;23.358;2022-08-07T14:41:35;91094.16;;;26.59;63.81
6395;BME280;3230;42.588;23.358;2022-08-07T14:44:07;91090.91;;;26.84;62.90
6395;BME280;3230;42.588;23.358;2022-08-07T14:46:34;91086.34;;;26.88;61.53
6395;BME280;3230;42.588;23.358;2022-08-07T14:49:02;91081.19;;;27.28;61.34
6395;BME280;3230;42.588;23.358;2022-08-07T14:51:28;91076.78;;;27.61;59.21
6395;BME280;3230;42.588;23.358;2022-08-07T14:53:56;91087.59;;;27.79;58.97
6395;BME280;3230;42.588;23.358;2022-08-07T14:56:27;91078.06;;;27.96;59.03
6395;BME280;3230;42.588;23.358;2022-08-07T14:59:01;91068.41;;;27.84;59.53
6395;BME280;3230;42.588;23.358;2022-08-07T15:01:31;91069.56;;;27.80;55.49
6395;BME280;3230;42.588;23.358;2022-08-07T15:03:59;91082.78;;;28.24;55.84
6395;BME280;3230;42.588;23.358;2022-08-07T15:06:29;91080.34;;;27.90;54.67
6395;BME280;3230;42.588;23.358;2022-08-07T15:09:08;91083.06;;;27.94;56.55
6395;BME280;3230;42.588;23.358;2022-08-07T15:11:56;91080.03;;;28.06;52.07
6395;BME280;3230;42.588;23.358;2022-08-07T15:14:25;91070.28;;;27.76;52.09
6395;BME280;3230;42.588;23.358;2022-08-07T15:17:02;91075.66;;;27.69;53.41
6395;BME280;3230;42.588;23.358;2022-08-07T15:19:36;91078.66;;;27.53;55.64
6395;BME280;3230;42.588;23.358;2022-08-07T15:22:03;91081.44;;;27.71;54.18
6395;BME280;3230;42.588;23.358;2022-08-07T15:24:33;91075.25;;;27.64;55.57
6395;BME280;3230;42.588;23.358;2022-08-07T15:29:40;91068.25;;;27.44;57.70
6395;BME280;3230;42.588;23.358;2022-08-07T15:32:07;91072.16;;;27.61;57.24
6395;BME280;3230;42.588;23.358;2022-08-07T15:34:45;91076.72;;;27.43;57.18
6395;BME280;3230;42.588;23.358;2022-08-07T15:37:20;91072.41;;;27.38;58.60